Time;durP1;ratioP1;P1;durP2;ratioP2;P2;SDS_P1;SDS_P2;PMS_P1;PMS_P2;Temp;Humidity;BMP_temperature;BMP_pressure;BME280_temperature;BME280_humidity;BME280_pressure;Samples;Min_cycle;Max_cycle;Signal;HPM_P1;HPM_P2
2022/11/18 00:00:35;;;;;;;32.60;29.50;;;;;;;0.37;63.99;99367.45;109798;1274;21946;-89
2022/11/18 00:03:07;;;;;;;31.10;28.30;;;;;;;0.36;64.00;99372.27;109655;1281;22576;-88
2022/11/18 00:05:35;;;;;;;30.40;27.60;;;;;;;0.32;63.87;99379.66;109295;1278;24311;-86
2022/11/18 00:08:33;;;;;;;30.10;27.30;;;;;;;0.28;63.90;99381.75;108986;1278;23618;-87
2022/11/18 00:14:17;;;;;;;27.90;25.10;;;;;;;0.32;64.10;99384.30;108870;1276;21941;-84
2022/11/18 00:14:38;;;;;;;30.90;27.80;;;;;;;0.23;63.98;99381.31;108959;1278;21938;-86
2022/11/18 00:17:49;;;;;;;27.00;24.30;;;;;;;0.20;64.02;99392.80;108342;1283;21955;-85
2022/11/18 00:20:41;;;;;;;26.40;23.90;;;;;;;0.20;64.09;99389.55;108176;1284;23788;-85
2022/11/18 00:23:28;;;;;;;26.20;23.70;;;;;;;0.21;64.12;99392.79;109591;1281;21948;-88
2022/11/18 00:26:31;;;;;;;;;;;;;;;;;;;;;
2022/11/18 00:29:10;;;;;;;26.70;24.30;;;;;;;0.23;64.09;99392.94;109205;1283;21940;-88
2022/11/18 00:32:14;;;;;;;26.70;24.20;;;;;;;0.24;64.21;99402.17;109099;1278;22083;-88
2022/11/18 00:35:38;;;;;;;28.70;26.00;;;;;;;0.29;64.27;99404.52;109138;1283;22097;-87
2022/11/18 00:38:38;;;;;;;29.80;26.90;;;;;;;0.31;64.09;99399.02;109028;1284;21990;-88
2022/11/18 00:46:10;;;;;;;26.00;23.30;;;;;;;0.36;64.21;99396.73;109128;1283;21938;-86
2022/11/18 00:48:55;;;;;;;28.60;26.10;;;;;;;0.39;64.18;99397.55;109722;1277;21930;-88
2022/11/18 00:51:29;;;;;;;29.50;26.50;;;;;;;0.44;64.02;99395.43;109706;1277;21815;-88
2022/11/18 00:54:20;;;;;;;37.00;33.50;;;;;;;0.48;63.88;99391.80;109770;1277;21788;-87
2022/11/18 00:57:06;;;;;;;40.40;36.40;;;;;;;0.49;63.80;99388.19;109831;1275;22388;-88
2022/11/18 00:59:40;;;;;;;41.80;37.90;;;;;;;0.50;63.71;99383.38;109864;1278;23054;-89
2022/11/18 01:02:15;;;;;;;42.70;38.70;;;;;;;0.45;63.45;99375.06;109884;1277;22001;-89
2022/11/18 01:04:52;;;;;;;34.20;30.90;;;;;;;0.44;63.47;99379.86;109867;1278;22190;-88
2022/11/18 01:07:29;;;;;;;32.10;29.10;;;;;;;0.42;63.53;99378.17;109830;1265;22521;-88
2022/11/18 01:10:13;;;;;;;31.70;28.60;;;;;;;0.38;63.54;99373.09;109853;1278;22693;-88
2022/11/18 01:15:55;;;;;;;26.50;23.80;;;;;;;0.43;63.68;99371.66;110039;1274;22383;-88
2022/11/18 01:18:31;;;;;;;26.50;23.70;;;;;;;0.48;63.64;99369.20;110078;1274;21943;-89
2022/11/18 01:21:23;;;;;;;28.00;25.20;;;;;;;0.51;63.67;99368.64;109990;1274;22284;-88
2022/11/18 01:23:57;;;;;;;37.70;34.20;;;;;;;0.54;63.51;99370.16;110016;1275;21946;-89
2022/11/18 01:26:30;;;;;;;41.70;37.80;;;;;;;0.49;63.32;99369.71;109849;1274;22318;-88
2022/11/18 01:29:11;;;;;;;33.00;29.70;;;;;;;0.43;63.38;99366.34;109396;1278;21957;-86
2022/11/18 01:31:44;;;;;;;40.90;37.10;;;;;;;0.35;63.26;99365.77;109333;1275;21966;-87
2022/11/18 01:34:33;;;;;;;47.10;42.50;;;;;;;0.27;63.38;99359.54;109617;1274;22715;-87
2022/11/18 01:37:06;;;;;;;51.30;46.40;;;;;;;0.25;63.59;99355.96;109317;1274;21917;-86
2022/11/18 01:39:42;;;;;;;44.20;40.00;;;;;;;0.22;63.54;99356.69;109080;1277;21980;-87
2022/11/18 01:42:25;;;;;;;40.80;36.70;;;;;;;0.18;63.54;99354.16;108988;1277;22694;-85
2022/11/18 01:45:39;;;;;;;37.20;33.80;;;;;;;0.13;63.64;99351.65;108949;1274;21938;-86
2022/11/18 01:48:41;;;;;;;44.30;39.90;;;;;;;0.02;63.72;99345.95;108986;1269;21955;-85
2022/11/18 01:51:31;;;;;;;;;;;;;;;;;;;;;
2022/11/18 01:54:39;;;;;;;43.80;39.40;;;;;;;-0.06;64.07;99346.04;109272;1277;22920;-87
2022/11/18 01:57:26;;;;;;;42.50;38.50;;;;;;;-0.03;64.12;99346.35;109214;1275;21976;-85
2022/11/18 02:00:41;;;;;;;41.90;37.90;;;;;;;-0.01;64.20;99344.62;108789;1274;21948;-86
2022/11/18 02:03:37;;;;;;;;;;;;;;;;;;;;;
2022/11/18 02:06:23;;;;;;;39.30;35.30;;;;;;;-0.08;64.19;99337.86;108919;1283;21923;-86
2022/11/18 02:09:14;;;;;;;39.20;35.40;;;;;;;-0.10;64.23;99336.69;108858;1283;21916;-85
2022/11/18 02:12:24;;;;;;;37.70;34.20;;;;;;;-0.13;64.39;99335.34;108553;1286;23078;-86
2022/11/18 02:15:39;;;;;;;39.40;35.60;;;;;;;-0.08;64.45;99342.30;108261;1289;21927;-86
2022/11/18 02:18:43;;;;;;;37.20;33.70;;;;;;;-0.05;64.49;99344.83;107987;1295;21930;-86
2022/11/18 02:21:59;;;;;;;38.90;34.90;;;;;;;-0.02;64.43;99341.89;107911;1295;22011;-86
2022/11/18 02:25:28;;;;;;;35.90;32.40;;;;;;;-0.06;64.32;99347.06;108108;1289;21946;-84
2022/11/18 02:29:02;;;;;;;32.30;29.30;;;;;;;-0.07;64.28;99355.45;107661;1296;22756;-86
2022/11/18 02:32:15;;;;;;;;;;;;;;;;;;;;;
2022/11/18 02:35:44;;;;;;;36.70;33.20;;;;;;;-0.28;64.45;99350.02;108374;1292;24540;-87
2022/11/18 02:38:41;;;;;;;35.30;31.80;;;;;;;-0.31;64.39;99339.63;108509;1288;21812;-85
2022/11/18 02:41:45;;;;;;;;;;;;;;;;;;;;;
2022/11/18 02:45:03;;;;;;;31.40;28.10;;;;;;;-0.36;64.38;99334.55;108132;1295;21958;-85
2022/11/18 02:47:58;;;;;;;30.40;27.40;;;;;;;-0.35;64.49;99331.97;108708;1284;22216;-85
2022/11/18 02:50:40;;;;;;;30.50;27.60;;;;;;;-0.35;64.47;99328.73;108688;1283;21952;-89
2022/11/18 02:53:32;;;;;;;31.60;28.40;;;;;;;-0.32;64.41;99325.95;108608;1283;21920;-86
2022/11/18 02:56:24;;;;;;;30.50;27.40;;;;;;;-0.32;64.27;99320.82;108907;1283;21937;-87
2022/11/18 02:59:11;;;;;;;30.20;27.30;;;;;;;-0.34;64.24;99321.52;108853;1286;21962;-87
2022/11/18 03:02:01;;;;;;;29.00;26.30;;;;;;;-0.34;64.24;99324.95;108863;1281;22192;-87
2022/11/18 03:04:57;;;;;;;28.90;26.10;;;;;;;-0.37;64.20;99322.92;109212;1279;21990;-87
2022/11/18 03:08:10;;;;;;;29.30;26.40;;;;;;;-0.43;64.23;99320.43;109226;1271;21934;-88
2022/11/18 03:11:02;;;;;;;29.60;26.60;;;;;;;-0.43;64.30;99321.96;109275;1280;21947;-87
2022/11/18 03:14:29;;;;;;;28.70;25.90;;;;;;;-0.42;64.26;99326.05;109418;1281;21969;-88
2022/11/18 03:17:38;;;;;;;27.00;24.30;;;;;;;-0.39;64.23;99326.88;109309;1277;22202;-87
2022/11/18 03:20:53;;;;;;;;;;;;;;;;;;;;;
2022/11/18 03:24:18;;;;;;;30.10;27.00;;;;;;;-0.32;64.17;99319.11;109894;1274;22271;-87
2022/11/18 03:27:12;;;;;;;31.30;27.10;;;;;;;-0.28;63.99;99319.24;108938;1282;21965;-88
2022/11/18 03:30:08;;;;;;;;;;;;;;;;;;;;;
2022/11/18 03:33:01;;;;;;;31.00;28.00;;;;;;;-0.20;63.92;99316.24;109153;1291;21935;-89
2022/11/18 03:35:42;;;;;;;31.90;28.60;;;;;;;-0.18;63.88;99316.77;109174;1290;22364;-87
2022/11/18 03:38:28;;;;;;;32.40;29.20;;;;;;;-0.15;63.76;99311.59;109754;1258;21957;-89
2022/11/18 03:41:07;;;;;;;32.40;29.00;;;;;;;-0.16;63.62;99302.38;109754;1277;21924;-89
2022/11/18 03:43:44;;;;;;;33.20;30.00;;;;;;;-0.14;63.54;99303.38;109869;1261;22156;-88
2022/11/18 03:46:39;;;;;;;31.10;28.20;;;;;;;-0.12;63.53;99304.19;109537;1273;22579;-86
2022/11/18 03:49:17;;;;;;;29.00;26.20;;;;;;;-0.11;63.52;99307.27;108937;1280;21911;-84
2022/11/18 03:52:17;;;;;;;;;;;;;;;;;;;;;
2022/11/18 03:55:16;;;;;;;;;;;;;;;;;;;;;
2022/11/18 03:57:51;;;;;;;25.80;22.70;;;;;;;-0.18;63.48;99311.96;109440;1289;22063;-90
2022/11/18 04:00:50;;;;;;;26.10;23.20;;;;;;;-0.20;63.33;99316.95;109110;1286;21963;-84
2022/11/18 04:03:59;;;;;;;26.20;23.10;;;;;;;-0.32;63.29;99316.03;108460;1288;21985;-86
2022/11/18 04:06:57;;;;;;;25.90;23.00;;;;;;;-0.36;63.35;99315.91;108870;1284;21950;-87
2022/11/18 04:09:51;;;;;;;26.10;23.40;;;;;;;-0.42;63.38;99312.89;109277;1275;21995;-87
2022/11/18 04:12:50;;;;;;;23.70;21.10;;;;;;;-0.49;63.40;99310.55;109684;1275;23597;-87
2022/11/18 04:15:27;;;;;;;23.50;21.10;;;;;;;-0.51;63.38;99309.21;109831;1275;21924;-87
2022/11/18 04:18:00;;;;;;;25.40;22.10;;;;;;;-0.52;63.35;99304.42;109767;1275;21939;-91
2022/11/18 04:20:33;;;;;;;24.30;21.80;;;;;;;-0.47;63.42;99309.52;109649;1273;21646;-89
2022/11/18 04:23:44;;;;;;;22.90;20.60;;;;;;;-0.50;63.39;99306.64;109738;1277;21937;-89
2022/11/18 04:26:32;;;;;;;22.80;20.50;;;;;;;-0.48;63.36;99306.11;109630;1275;22417;-88
2022/11/18 04:29:26;;;;;;;22.00;19.90;;;;;;;-0.50;63.22;99304.93;110089;1270;23060;-89
2022/11/18 04:32:16;;;;;;;24.60;21.20;;;;;;;-0.60;62.99;99303.14;109713;1274;21913;-87
2022/11/18 04:34:49;;;;;;;24.20;21.60;;;;;;;-0.70;62.75;99309.55;109727;1275;21915;-88
2022/11/18 04:37:38;;;;;;;24.20;21.70;;;;;;;-0.78;62.76;99313.38;109758;1273;21937;-89
2022/11/18 04:40:33;;;;;;;;;;;;;;;-0.84;62.88;99307.97;109878;1274;22060;-88
2022/11/18 04:43:04;;;;;;;23.60;21.20;;;;;;;-0.93;62.96;99304.80;109792;1275;21926;-87
2022/11/18 04:45:41;;;;;;;21.90;19.70;;;;;;;-0.91;63.04;99308.02;109442;1275;21929;-87
2022/11/18 04:48:18;;;;;;;19.80;17.90;;;;;;;-0.90;62.93;99311.27;109613;1275;23716;-87
2022/11/18 04:50:59;;;;;;;22.80;20.20;;;;;;;-0.92;62.81;99314.35;109267;1275;21897;-87
2022/11/18 04:54:00;;;;;;;21.10;19.00;;;;;;;-0.93;62.83;99317.77;109056;1277;22367;-87
2022/11/18 04:56:44;;;;;;;22.40;20.20;;;;;;;-0.96;62.60;99316.27;108788;1280;23588;-86
2022/11/18 04:59:33;;;;;;;25.00;21.40;;;;;;;-1.01;62.59;99314.41;109160;1280;21929;-88
2022/11/18 05:02:08;;;;;;;22.50;20.10;;;;;;;-1.00;62.73;99313.73;109058;1275;23115;-87
2022/11/18 05:05:02;;;;;;;22.00;19.80;;;;;;;-1.02;62.61;99314.94;108563;1285;21940;-84
2022/11/18 05:07:37;;;;;;;21.60;18.80;;;;;;;-1.02;62.49;99317.86;109091;1285;21962;-86
2022/11/18 05:10:13;;;;;;;22.20;19.70;;;;;;;-1.02;62.46;99322.27;109233;1284;21960;-89
2022/11/18 05:13:11;;;;;;;;;;;;;;;;;;;;;
2022/11/18 05:15:46;;;;;;;21.20;19.10;;;;;;;-0.97;62.29;99332.15;108821;1280;22354;-88
2022/11/18 05:18:24;;;;;;;21.10;18.80;;;;;;;-0.95;62.28;99329.92;108721;1280;21949;-84
2022/11/18 05:21:09;;;;;;;23.50;21.10;;;;;;;-0.98;62.16;99328.22;108417;1280;21955;-83
2022/11/18 05:24:02;;;;;;;23.70;21.30;;;;;;;-0.98;62.15;99333.52;108819;1275;21994;-83
2022/11/18 05:26:53;;;;;;;;;;;;;;;;;;;;;
2022/11/18 05:29:34;;;;;;;21.70;19.60;;;;;;;-0.99;61.99;99343.44;109561;1275;21939;-89
2022/11/18 05:32:04;;;;;;;22.70;20.40;;;;;;;-1.01;61.80;99345.83;109530;1275;21963;-87
2022/11/18 05:34:43;;;;;;;31.10;23.00;;;;;;;-1.05;61.67;99349.98;109465;1275;21911;-86
2022/11/18 05:37:44;;;;;;;24.60;22.20;;;;;;;-1.12;61.65;99352.39;109573;1280;21924;-86
2022/11/18 05:40:26;;;;;;;26.10;23.30;;;;;;;-1.15;61.57;99352.42;109258;1281;21949;-87
2022/11/18 05:43:10;;;;;;;26.60;24.00;;;;;;;-1.15;61.57;99355.33;109441;1275;21935;-87
2022/11/18 05:45:51;;;;;;;28.10;25.00;;;;;;;-1.14;61.69;99352.92;109424;1280;23691;-86
2022/11/18 05:48:23;;;;;;;27.00;24.40;;;;;;;-1.09;61.71;99353.23;109285;1280;21955;-84
2022/11/18 05:51:11;;;;;;;27.50;24.70;;;;;;;-1.06;61.67;99354.59;109062;1280;21931;-84
2022/11/18 05:54:00;;;;;;;;;;;;;;;;;;;;;
2022/11/18 05:56:58;;;;;;;28.80;25.80;;;;;;;-1.00;61.68;99359.32;108451;1280;22689;-83
2022/11/18 05:59:37;;;;;;;27.30;24.60;;;;;;;-1.03;61.46;99357.11;108610;1280;22907;-84
2022/11/18 06:02:50;;;;;;;29.50;26.30;;;;;;;-1.07;61.47;99360.23;109244;1281;21951;-87
2022/11/18 06:06:05;;;;;;;;;;;;;;;;;;;;;
2022/11/18 06:09:10;;;;;;;26.70;23.50;;;;;;;-1.12;61.46;99371.02;109391;1280;21990;-88
2022/11/18 06:11:56;;;;;;;28.10;25.10;;;;;;;-1.15;61.41;99369.31;109688;1272;21938;-89
2022/11/18 06:14:43;;;;;;;29.20;26.00;;;;;;;-1.11;61.45;99376.81;109774;1275;21930;-89
2022/11/18 06:17:34;;;;;;;27.20;24.30;;;;;;;-1.08;61.51;99381.57;109726;1274;22780;-87
2022/11/18 06:20:30;;;;;;;26.40;23.70;;;;;;;-1.04;61.48;99389.06;109579;1275;21920;-86
2022/11/18 06:23:46;;;;;;;25.40;22.90;;;;;;;-1.02;61.52;99386.67;109908;1275;21766;-88
2022/11/18 06:26:27;;;;;;;25.60;23.20;;;;;;;-1.00;61.36;99387.66;109808;1275;21788;-88
2022/11/18 06:29:19;;;;;;;25.90;23.40;;;;;;;-0.96;61.42;99393.63;110327;1258;22300;-88
2022/11/18 06:32:02;;;;;;;30.30;26.90;;;;;;;-0.93;61.47;99395.30;109752;1277;22015;-84
2022/11/18 06:34:37;;;;;;;;;;;;;;;-0.90;61.25;99399.73;108881;1277;23639;-84
2022/11/18 06:37:32;;;;;;;29.80;24.70;;;;;;;-0.99;61.34;99394.16;108886;1275;24333;-86
2022/11/18 06:40:00;;;;;;;29.90;26.10;;;;;;;-0.99;61.45;99395.35;108440;1280;21975;-85
2022/11/18 06:46:54;;;;;;;32.40;29.20;;;;;;;-0.98;61.37;99399.79;108187;1287;21939;-85
2022/11/18 06:48:51;;;;;;;27.80;24.90;;;;;;;-0.93;61.49;99403.01;108344;1290;23763;-83
2022/11/18 06:51:30;;;;;;;27.40;24.60;;;;;;;-0.89;61.47;99399.05;108057;1287;21958;-84
2022/11/18 06:53:59;;;;;;;29.00;25.90;;;;;;;-0.86;61.41;99400.55;108403;1289;21812;-86
2022/11/18 06:56:29;;;;;;;25.90;22.10;;;;;;;-0.82;61.41;99402.42;108401;1290;21911;-88
2022/11/18 06:58:58;;;;;;;26.90;22.60;;;;;;;-0.78;61.33;99407.36;107899;1292;23073;-82
2022/11/18 07:01:30;;;;;;;25.00;22.50;;;;;;;-0.79;61.17;99402.05;107589;1292;21960;-83
2022/11/18 07:03:58;;;;;;;28.20;25.00;;;;;;;-0.80;61.00;99404.27;108225;1283;23102;-82
2022/11/18 07:06:30;;;;;;;31.50;27.00;;;;;;;-0.76;61.11;99411.44;108295;1283;23090;-80
2022/11/18 07:09:05;;;;;;;32.50;27.10;;;;;;;-0.75;61.04;99413.65;108198;1283;23074;-81
2022/11/18 07:11:50;;;;;;;28.80;25.90;;;;;;;-0.75;61.01;99416.73;108126;1280;22471;-83
2022/11/18 07:14:27;;;;;;;27.50;24.40;;;;;;;-0.75;60.97;99427.15;108099;1283;23606;-80
2022/11/18 07:17:00;;;;;;;28.40;25.40;;;;;;;-0.71;61.19;99429.51;108030;1277;23025;-79
2022/11/18 07:19:30;;;;;;;29.70;25.80;;;;;;;-0.65;61.20;99429.98;108362;1281;22349;-78
2022/11/18 07:22:03;;;;;;;30.00;26.80;;;;;;;-0.57;61.30;99430.27;107682;1286;21949;-80
2022/11/18 07:24:30;;;;;;;31.70;28.40;;;;;;;-0.52;61.19;99435.02;107973;1286;22739;-82
2022/11/18 07:26:59;;;;;;;33.10;29.80;;;;;;;-0.51;61.09;99435.35;108015;1286;21949;-79
2022/11/18 07:29:26;;;;;;;33.70;30.10;;;;;;;-0.55;60.97;99439.30;107928;1286;23069;-82
2022/11/18 07:31:54;;;;;;;33.10;29.70;;;;;;;-0.58;61.18;99437.97;107234;1292;23613;-82
2022/11/18 07:34:22;;;;;;;36.70;31.60;;;;;;;-0.59;61.28;99442.24;107360;1295;22351;-79
2022/11/18 07:36:50;;;;;;;35.20;31.50;;;;;;;-0.57;61.50;99441.70;107377;1290;23600;-79
2022/11/18 07:39:22;;;;;;;33.20;29.30;;;;;;;-0.55;61.59;99439.82;107508;1285;23600;-78
2022/11/18 07:41:52;;;;;;;;;;;;;;;-0.52;61.67;99439.64;108066;1283;23082;-81
2022/11/18 07:44:26;;;;;;;33.20;29.40;;;;;;;-0.57;61.83;99441.03;107948;1282;22346;-77
2022/11/18 07:46:54;;;;;;;34.80;31.10;;;;;;;-0.61;62.02;99442.95;108129;1282;23236;-80
2022/11/18 07:49:22;;;;;;;34.90;31.20;;;;;;;-0.64;62.16;99444.16;108226;1277;22379;-79
2022/11/18 07:51:50;;;;;;;38.80;33.20;;;;;;;-0.64;62.32;99442.10;108025;1283;23609;-77
2022/11/18 07:54:18;;;;;;;35.90;32.00;;;;;;;-0.63;62.56;99444.48;107954;1282;23952;-78
2022/11/18 07:56:46;;;;;;;37.00;32.80;;;;;;;-0.61;62.80;99446.70;107532;1286;23708;-77
2022/11/18 07:59:14;;;;;;;38.70;34.40;;;;;;;-0.60;62.89;99447.04;107811;1285;21952;-76
2022/11/18 08:01:42;;;;;;;39.60;35.30;;;;;;;-0.62;62.82;99447.05;107749;1286;22898;-77
2022/11/18 08:04:11;;;;;;;37.20;33.20;;;;;;;-0.61;63.15;99446.35;107757;1279;23066;-77
2022/11/18 08:06:40;;;;;;;34.50;30.50;;;;;;;-0.62;63.29;99445.00;107950;1285;21959;-78
2022/11/18 08:09:09;;;;;;;41.00;33.10;;;;;;;-0.66;63.23;99441.11;107590;1283;23687;-80
2022/11/18 08:11:37;;;;;;;36.50;32.50;;;;;;;-0.66;63.54;99445.38;108019;1278;21934;-80
2022/11/18 08:14:04;;;;;;;38.20;34.00;;;;;;;-0.71;63.50;99445.06;108354;1283;21986;-79
2022/11/18 08:16:32;;;;;;;35.10;31.30;;;;;;;-0.77;63.54;99445.10;108065;1283;22409;-79
2022/11/18 08:19:00;;;;;;;35.60;31.70;;;;;;;-0.81;63.62;99442.73;108012;1284;22953;-78
2022/11/18 08:21:28;;;;;;;36.40;32.60;;;;;;;-0.83;63.68;99442.73;108091;1285;23070;-78
2022/11/18 08:23:57;;;;;;;36.10;32.40;;;;;;;-0.86;63.74;99444.64;108061;1285;21989;-79
2022/11/18 08:26:26;;;;;;;38.70;32.60;;;;;;;-0.89;63.77;99445.52;108137;1286;21942;-80
2022/11/18 08:28:54;;;;;;;35.90;32.00;;;;;;;-0.87;64.07;99443.79;108055;1283;23443;-79
2022/11/18 08:31:28;;;;;;;33.40;27.30;;;;;;;-0.83;64.22;99440.86;108052;1278;24103;-79
2022/11/18 08:34:02;;;;;;;28.00;24.80;;;;;;;-0.76;64.29;99445.77;108669;1278;23680;-77
2022/11/18 08:36:35;;;;;;;23.90;21.40;;;;;;;-0.75;64.11;99448.68;108418;1283;22357;-81
2022/11/18 08:39:07;;;;;;;24.40;21.80;;;;;;;-0.80;64.02;99446.47;108284;1282;21942;-79
2022/11/18 08:41:42;;;;;;;24.10;21.60;;;;;;;-0.85;64.05;99443.95;108120;1283;21947;-78
2022/11/18 08:44:14;;;;;;;26.70;23.40;;;;;;;-0.87;64.06;99443.45;107755;1287;23008;-77
2022/11/18 08:46:46;;;;;;;;;;;;;;;-0.87;64.22;99446.36;107640;1283;23890;-77
2022/11/18 08:49:14;;;;;;;22.90;19.80;;;;;;;-0.93;64.37;99447.92;107729;1288;24310;-77
2022/11/18 08:51:42;;;;;;;24.90;19.60;;;;;;;-0.94;64.27;99444.86;107496;1283;21955;-78
2022/11/18 08:54:09;;;;;;;24.20;21.30;;;;;;;-0.93;64.30;99444.34;107711;1286;22108;-77
2022/11/18 08:56:38;;;;;;;31.40;25.20;;;;;;;-0.91;64.23;99446.71;107957;1286;21944;-78
2022/11/18 08:59:07;;;;;;;22.30;19.40;;;;;;;-0.89;64.16;99448.41;107898;1283;23894;-77
2022/11/18 09:01:37;;;;;;;19.40;16.70;;;;;;;-0.91;63.98;99448.25;108082;1277;21936;-76
2022/11/18 09:04:04;;;;;;;22.80;19.90;;;;;;;-0.93;63.89;99448.95;108138;1282;23584;-78
2022/11/18 09:06:33;;;;;;;18.50;16.30;;;;;;;-0.94;64.01;99447.42;108104;1282;22453;-78
2022/11/18 09:09:01;;;;;;;21.90;17.60;;;;;;;-0.91;63.94;99450.30;108097;1282;23597;-77
2022/11/18 09:11:34;;;;;;;21.70;16.60;;;;;;;-0.91;63.94;99451.16;108149;1283;23064;-77
2022/11/18 09:14:02;;;;;;;16.80;15.00;;;;;;;-0.88;64.11;99451.98;108204;1283;23671;-77
2022/11/18 09:16:50;;;;;;;18.30;15.90;;;;;;;-0.83;63.96;99459.48;108075;1282;23624;-76
2022/11/18 09:19:18;;;;;;;21.70;16.40;;;;;;;-0.84;63.80;99457.78;108182;1282;21940;-76
2022/11/18 09:22:07;;;;;;;13.80;11.70;;;;;;;-0.86;63.61;99460.86;108248;1277;23798;-77
2022/11/18 09:24:35;;;;;;;14.40;12.30;;;;;;;-0.90;63.43;99463.29;108306;1277;21930;-77
2022/11/18 09:27:05;;;;;;;9.80;8.90;;;;;;;-0.93;63.25;99464.33;108475;1277;23018;-79
2022/11/18 09:29:34;;;;;;;11.00;9.70;;;;;;;-0.98;62.96;99462.46;108614;1277;21970;-77
2022/11/18 09:32:02;;;;;;;10.10;9.10;;;;;;;-1.02;63.08;99466.77;108540;1277;23230;-78
2022/11/18 09:34:32;;;;;;;10.60;9.50;;;;;;;-0.99;63.19;99464.02;108128;1283;22041;-78
2022/11/18 09:37:05;;;;;;;17.90;11.70;;;;;;;-0.96;63.16;99469.29;107578;1283;22317;-78
2022/11/18 09:39:36;;;;;;;;;;;;;;;-0.89;63.04;99477.45;107303;1294;21936;-79
2022/11/18 09:42:25;;;;;;;14.10;10.70;;;;;;;-0.95;63.16;99472.02;107479;1294;21959;-79
2022/11/18 09:45:17;;;;;;;11.70;8.80;;;;;;;-0.95;63.10;99472.19;107396;1294;22831;-79
2022/11/18 09:47:58;;;;;;;13.80;10.70;;;;;;;-0.95;62.87;99473.73;107682;1294;21966;-80
2022/11/18 09:50:26;;;;;;;11.30;9.00;;;;;;;-0.95;62.79;99473.04;107381;1294;21937;-79
2022/11/18 09:53:23;;;;;;;9.10;8.20;;;;;;;-0.95;62.61;99471.52;107661;1289;21949;-79
2022/11/18 09:55:53;;;;;;;15.80;10.30;;;;;;;-0.96;62.58;99474.75;108330;1282;23151;-79
2022/11/18 09:58:37;;;;;;;11.70;8.50;;;;;;;-0.95;62.43;99477.83;108420;1277;21900;-79
2022/11/18 10:01:16;;;;;;;19.10;10.10;;;;;;;-0.95;62.30;99482.44;108683;1277;24453;-79
2022/11/18 10:03:44;;;;;;;21.10;10.70;;;;;;;-0.93;62.32;99486.36;108359;1276;22474;-79
2022/11/18 10:06:31;;;;;;;8.90;8.00;;;;;;;-0.89;62.32;99491.97;108244;1277;23099;-79
2022/11/18 10:09:18;;;;;;;11.30;9.50;;;;;;;-0.86;62.18;99489.90;108431;1283;22021;-79
2022/11/18 10:12:08;;;;;;;9.80;8.80;;;;;;;-0.78;62.43;99483.19;108509;1283;21937;-80
2022/11/18 10:14:54;;;;;;;15.20;12.60;;;;;;;-0.66;62.46;99477.49;108450;1282;21988;-80
2022/11/18 10:17:55;;;;;;;8.30;7.00;;;;;;;-0.58;62.08;99480.86;108474;1276;21911;-81
2022/11/18 10:20:42;;;;;;;9.00;7.20;;;;;;;-0.52;61.77;99481.33;108456;1283;21927;-81
2022/11/18 10:23:33;;;;;;;12.60;7.70;;;;;;;-0.47;61.54;99480.11;108395;1284;21931;-81
2022/11/18 10:26:02;;;;;;;9.20;6.50;;;;;;;-0.39;61.34;99482.79;108746;1277;21913;-80
2022/11/18 10:28:34;;;;;;;7.80;6.60;;;;;;;-0.33;61.00;99482.74;108855;1277;21907;-81
2022/11/18 10:31:09;;;;;;;9.60;6.40;;;;;;;-0.31;60.68;99480.33;108536;1269;23596;-80
2022/11/18 10:33:38;;;;;;;7.60;5.60;;;;;;;-0.30;60.27;99480.67;107906;1278;1198294;-81
2022/11/18 10:36:15;;;;;;;6.40;5.40;;;;;;;-0.29;59.94;99476.56;108687;1277;21947;-80
2022/11/18 10:38:47;;;;;;;5.60;4.80;;;;;;;-0.26;59.94;99476.20;108603;1277;22062;-81
2022/11/18 10:41:19;;;;;;;6.00;5.00;;;;;;;-0.24;59.61;99479.42;108693;1277;22654;-79
2022/11/18 10:43:52;;;;;;;6.10;5.10;;;;;;;-0.22;59.40;99474.96;108687;1277;21939;-80
2022/11/18 10:46:26;;;;;;;7.80;6.60;;;;;;;-0.19;59.31;99474.61;108583;1277;21926;-81
2022/11/18 10:49:09;;;;;;;9.20;6.90;;;;;;;-0.12;59.30;99475.73;108901;1277;21942;-80
2022/11/18 10:52:04;;;;;;;11.30;6.80;;;;;;;-0.07;59.07;99475.86;108842;1276;21947;-79
2022/11/18 10:54:32;;;;;;;8.80;6.60;;;;;;;-0.03;58.90;99477.71;108592;1277;24278;-80
2022/11/18 10:57:11;;;;;;;5.40;4.90;;;;;;;0.02;58.60;99481.95;108804;1277;22701;-79
2022/11/18 10:59:49;;;;;;;6.60;5.50;;;;;;;-0.02;58.30;99482.67;108680;1277;21943;-79
2022/11/18 11:02:38;;;;;;;6.80;6.10;;;;;;;-0.06;58.16;99479.61;108728;1277;21956;-80
2022/11/18 11:05:22;;;;;;;7.40;6.60;;;;;;;-0.08;57.94;99481.52;108654;1273;22312;-80
2022/11/18 11:08:04;;;;;;;6.30;5.60;;;;;;;-0.06;58.05;99483.04;108857;1278;22886;-80
2022/11/18 11:10:56;;;;;;;;;;;;;;;0.14;58.79;99485.60;108832;1278;22837;-82
2022/11/18 11:13:32;;;;;;;7.70;6.30;;;;;;;0.35;59.50;99490.89;108834;1277;21921;-82
2022/11/18 11:16:04;;;;;;;6.60;5.70;;;;;;;0.54;58.74;99489.83;108738;1278;21943;-80
2022/11/18 11:18:42;;;;;;;;;;;;;;;0.62;58.02;99486.49;108775;1274;22013;-82
2022/11/18 11:21:24;;;;;;;7.50;5.60;;;;;;;0.58;57.59;99490.64;108686;1280;22065;-84
2022/11/18 11:23:52;;;;;;;6.60;5.40;;;;;;;0.55;57.18;99488.10;108656;1280;22049;-86
2022/11/18 11:27:16;;;;;;;13.40;10.50;;;;;;;0.49;56.89;99482.69;108694;1281;21986;-83
2022/11/18 11:30:10;;;;;;;9.60;7.50;;;;;;;0.47;56.92;99481.68;108799;1280;21969;-84
2022/11/18 11:32:38;;;;;;;11.30;7.50;;;;;;;0.50;56.93;99484.21;108678;1280;21949;-83
2022/11/18 11:35:22;;;;;;;8.80;7.90;;;;;;;0.54;56.99;99488.96;108677;1281;23678;-83
2022/11/18 11:38:16;;;;;;;8.20;6.70;;;;;;;0.55;56.79;99488.96;108716;1286;21929;-84
2022/11/18 11:40:59;;;;;;;12.00;7.50;;;;;;;0.51;56.65;99485.41;108735;1283;22768;-83
2022/11/18 11:43:54;;;;;;;8.20;6.60;;;;;;;0.53;56.67;99488.63;109303;1283;21919;-86
2022/11/18 11:47:45;;;;;;;7.40;5.70;;;;;;;0.55;56.55;99488.78;109019;1278;21950;-82
2022/11/18 11:50:13;;;;;;;9.80;6.70;;;;;;;0.54;56.57;99487.61;108933;1283;21967;-81
2022/11/18 11:52:56;;;;;;;9.60;6.90;;;;;;;0.53;56.70;99490.02;108382;1288;21959;-85
2022/11/18 11:55:37;;;;;;;6.40;5.60;;;;;;;0.55;56.66;99486.73;108579;1289;21943;-83
2022/11/18 11:58:31;;;;;;;8.00;6.10;;;;;;;0.57;56.50;99487.39;108754;1284;21960;-85
2022/11/18 12:01:37;;;;;;;6.90;5.80;;;;;;;0.57;56.43;99488.60;108466;1289;21969;-83
2022/11/18 12:04:50;;;;;;;8.30;6.20;;;;;;;0.54;56.37;99484.00;108127;1292;23633;-85
2022/11/18 12:07:31;;;;;;;6.10;5.50;;;;;;;0.53;56.45;99486.23;107500;1295;23584;-84
2022/11/18 12:10:53;;;;;;;8.60;6.60;;;;;;;0.58;56.61;99484.13;107479;1293;21965;-81
2022/11/18 12:13:56;;;;;;;7.70;5.80;;;;;;;0.59;56.54;99488.40;107317;1297;21955;-83
2022/11/18 12:16:52;;;;;;;7.00;6.00;;;;;;;0.55;56.52;99487.77;107509;1292;21963;-82
2022/11/18 12:19:22;;;;;;;7.40;6.30;;;;;;;0.51;56.44;99484.03;108144;1290;21962;-83
2022/11/18 12:21:57;;;;;;;9.60;8.60;;;;;;;0.52;56.49;99485.40;107770;1292;21956;-90
2022/11/18 12:24:38;;;;;;;9.40;7.50;;;;;;;0.53;56.43;99488.98;107629;1292;21944;-82
2022/11/18 12:27:36;;;;;;;9.90;7.30;;;;;;;0.55;56.46;99491.19;107279;1297;21976;-86
2022/11/18 12:30:16;;;;;;;11.70;8.00;;;;;;;0.55;56.50;99491.19;107408;1294;21979;-83
2022/11/18 12:32:46;;;;;;;8.40;6.60;;;;;;;0.57;56.57;99489.45;107416;1297;23069;-85
2022/11/18 12:35:14;;;;;;;10.50;6.70;;;;;;;0.59;56.43;99493.88;107386;1296;22501;-84
2022/11/18 12:37:50;;;;;;;9.50;7.20;;;;;;;0.62;56.48;99491.29;107332;1293;21996;-85
2022/11/18 12:40:45;;;;;;;11.50;7.90;;;;;;;0.65;56.51;99492.63;107579;1291;24298;-84
2022/11/18 12:46:33;;;;;;;16.60;12.50;;;;;;;0.65;56.54;99489.00;108472;1283;21950;-84
2022/11/18 12:49:20;;;;;;;20.60;11.90;;;;;;;0.69;56.76;99487.09;108818;1277;22057;-85
2022/11/18 12:51:59;;;;;;;17.90;10.80;;;;;;;0.73;56.76;99487.56;108969;1275;21936;-84
2022/11/18 12:54:47;;;;;;;18.30;14.30;;;;;;;0.75;56.65;99482.73;108997;1276;22215;-85
2022/11/18 12:57:29;;;;;;;15.50;11.80;;;;;;;0.78;56.76;99481.17;108812;1273;21952;-83
2022/11/18 13:00:05;;;;;;;15.00;11.20;;;;;;;0.82;56.64;99480.44;108985;1278;22617;-84
2022/11/18 13:08:11;;;;;;;10.20;8.10;;;;;;;0.84;56.69;99482.82;108114;1292;24281;-85
2022/11/18 13:10:10;;;;;;;14.10;10.90;;;;;;;0.83;56.65;99481.27;107565;1292;21956;-82
2022/11/18 13:12:43;;;;;;;16.00;12.50;;;;;;;0.83;56.60;99480.42;107597;1281;24359;-82